sensor_id;sensor_type;location;lat;lon;timestamp;P1;durP1;ratioP1;P2;durP2;ratioP2
6215;SDS011;3141;49.234;9.326;2024-02-04T00:00:02;5.77;;;2.97;;
6215;SDS011;3141;49.234;9.326;2024-02-04T00:00:45;3.25;;;2.03;;
6215;SDS011;3141;49.234;9.326;2024-02-04T00:01:27;3.13;;;1.43;;
6215;SDS011;3141;49.234;9.326;2024-02-04T00:02:10;2.10;;;1.57;;
6215;SDS011;3141;49.234;9.326;2024-02-04T00:02:56;5.43;;;2.42;;
6215;SDS011;3141;49.234;9.326;2024-02-04T00:03:38;2.37;;;1.70;;
6215;SDS011;3141;49.234;9.326;2024-02-04T00:04:21;2.30;;;1.70;;
6215;SDS011;3141;49.234;9.326;2024-02-04T00:05:05;3.83;;;2.55;;
6215;SDS011;3141;49.234;9.326;2024-02-04T00:05:48;7.60;;;2.60;;
6215;SDS011;3141;49.234;9.326;2024-02-04T00:06:30;4.70;;;2.27;;
6215;SDS011;3141;49.234;9.326;2024-02-04T00:07:13;2.37;;;1.87;;
6215;SDS011;3141;49.234;9.326;2024-02-04T00:07:55;1.83;;;1.67;;
6215;SDS011;3141;49.234;9.326;2024-02-04T00:08:38;5.80;;;2.37;;
6215;SDS011;3141;49.234;9.326;2024-02-04T00:09:20;8.73;;;3.40;;
6215;SDS011;3141;49.234;9.326;2024-02-04T00:10:02;8.27;;;3.00;;
6215;SDS011;3141;49.234;9.326;2024-02-04T00:10:45;8.57;;;3.80;;
6215;SDS011;3141;49.234;9.326;2024-02-04T00:11:27;10.00;;;4.57;;
6215;SDS011;3141;49.234;9.326;2024-02-04T00:12:10;8.97;;;3.30;;
6215;SDS011;3141;49.234;9.326;2024-02-04T00:12:52;3.33;;;2.60;;
6215;SDS011;3141;49.234;9.326;2024-02-04T00:13:35;8.60;;;2.83;;
6215;SDS011;3141;49.234;9.326;2024-02-04T00:14:17;5.83;;;2.20;;
6215;SDS011;3141;49.234;9.326;2024-02-04T00:15:00;2.60;;;1.53;;
6215;SDS011;3141;49.234;9.326;2024-02-04T00:15:42;4.03;;;2.23;;
6215;SDS011;3141;49.234;9.326;2024-02-04T00:16:24;6.60;;;3.10;;
6215;SDS011;3141;49.234;9.326;2024-02-04T00:17:06;6.13;;;2.87;;
6215;SDS011;3141;49.234;9.326;2024-02-04T00:17:49;3.70;;;2.13;;
6215;SDS011;3141;49.234;9.326;2024-02-04T00:18:31;5.47;;;2.17;;
6215;SDS011;3141;49.234;9.326;2024-02-04T00:19:14;4.07;;;2.80;;
6215;SDS011;3141;49.234;9.326;2024-02-04T00:19:56;9.63;;;3.80;;
6215;SDS011;3141;49.234;9.326;2024-02-04T00:20:39;8.57;;;3.17;;
6215;SDS011;3141;49.234;9.326;2024-02-04T00:21:21;5.57;;;3.13;;
6215;SDS011;3141;49.234;9.326;2024-02-04T00:22:03;8.73;;;3.37;;
6215;SDS011;3141;49.234;9.326;2024-02-04T00:22:46;1.50;;;1.40;;
6215;SDS011;3141;49.234;9.326;2024-02-04T00:23:28;3.37;;;2.40;;
6215;SDS011;3141;49.234;9.326;2024-02-04T00:24:11;4.83;;;2.33;;
6215;SDS011;3141;49.234;9.326;2024-02-04T00:24:53;4.37;;;2.93;;
6215;SDS011;3141;49.234;9.326;2024-02-04T00:25:35;4.80;;;2.63;;
6215;SDS011;3141;49.234;9.326;2024-02-04T00:26:18;4.00;;;2.17;;
6215;SDS011;3141;49.234;9.326;2024-02-04T00:27:00;5.60;;;2.73;;
6215;SDS011;3141;49.234;9.326;2024-02-04T00:27:43;10.13;;;3.27;;
6215;SDS011;3141;49.234;9.326;2024-02-04T00:28:25;2.50;;;2.30;;
6215;SDS011;3141;49.234;9.326;2024-02-04T00:29:09;4.25;;;1.95;;
6215;SDS011;3141;49.234;9.326;2024-02-04T00:29:51;2.73;;;1.80;;
6215;SDS011;3141;49.234;9.326;2024-02-04T00:30:34;2.50;;;1.60;;
6215;SDS011;3141;49.234;9.326;2024-02-04T00:31:16;4.60;;;2.73;;
6215;SDS011;3141;49.234;9.326;2024-02-04T00:31:58;1.50;;;1.40;;
6215;SDS011;3141;49.234;9.326;2024-02-04T00:32:41;3.03;;;1.83;;
6215;SDS011;3141;49.234;9.326;2024-02-04T00:33:23;4.63;;;2.30;;
6215;SDS011;3141;49.234;9.326;2024-02-04T00:34:05;3.83;;;2.07;;
6215;SDS011;3141;49.234;9.326;2024-02-04T00:34:48;6.27;;;2.43;;
6215;SDS011;3141;49.234;9.326;2024-02-04T00:35:30;8.77;;;3.40;;
6215;SDS011;3141;49.234;9.326;2024-02-04T00:36:12;3.17;;;2.07;;
6215;SDS011;3141;49.234;9.326;2024-02-04T00:36:55;6.30;;;3.00;;
6215;SDS011;3141;49.234;9.326;2024-02-04T00:37:37;2.77;;;2.23;;
6215;SDS011;3141;49.234;9.326;2024-02-04T00:38:19;5.47;;;1.97;;
6215;SDS011;3141;49.234;9.326;2024-02-04T00:39:02;4.07;;;2.27;;
6215;SDS011;3141;49.234;9.326;2024-02-04T00:39:45;3.13;;;2.33;;
6215;SDS011;3141;49.234;9.326;2024-02-04T00:40:27;8.37;;;3.37;;
6215;SDS011;3141;49.234;9.326;2024-02-04T00:41:10;4.13;;;2.70;;
6215;SDS011;3141;49.234;9.326;2024-02-04T00:41:52;3.17;;;2.50;;
6215;SDS011;3141;49.234;9.326;2024-02-04T00:42:34;4.30;;;3.00;;
6215;SDS011;3141;49.234;9.326;2024-02-04T00:43:17;7.27;;;3.13;;
6215;SDS011;3141;49.234;9.326;2024-02-04T00:43:59;4.87;;;2.37;;
6215;SDS011;3141;49.234;9.326;2024-02-04T00:44:42;2.37;;;1.80;;
6215;SDS011;3141;49.234;9.326;2024-02-04T00:45:24;5.03;;;2.53;;
6215;SDS011;3141;49.234;9.326;2024-02-04T00:46:06;6.63;;;3.30;;
6215;SDS011;3141;49.234;9.326;2024-02-04T00:46:49;6.95;;;3.40;;
6215;SDS011;3141;49.234;9.326;2024-02-04T00:47:32;3.10;;;2.03;;
6215;SDS011;3141;49.234;9.326;2024-02-04T00:48:14;5.87;;;2.90;;
6215;SDS011;3141;49.234;9.326;2024-02-04T00:48:56;2.33;;;2.13;;
6215;SDS011;3141;49.234;9.326;2024-02-04T00:49:39;7.37;;;3.27;;
6215;SDS011;3141;49.234;9.326;2024-02-04T00:50:21;2.60;;;2.00;;
6215;SDS011;3141;49.234;9.326;2024-02-04T00:51:03;4.70;;;2.47;;
6215;SDS011;3141;49.234;9.326;2024-02-04T00:51:46;4.10;;;2.23;;
6215;SDS011;3141;49.234;9.326;2024-02-04T00:52:28;3.43;;;2.30;;
6215;SDS011;3141;49.234;9.326;2024-02-04T00:53:11;2.47;;;2.10;;
6215;SDS011;3141;49.234;9.326;2024-02-04T00:53:53;7.53;;;3.07;;
6215;SDS011;3141;49.234;9.326;2024-02-04T00:54:35;3.60;;;2.20;;
6215;SDS011;3141;49.234;9.326;2024-02-04T00:55:18;5.63;;;2.23;;
6215;SDS011;3141;49.234;9.326;2024-02-04T00:56:03;4.80;;;2.30;;
6215;SDS011;3141;49.234;9.326;2024-02-04T00:56:46;3.05;;;2.28;;
6215;SDS011;3141;49.234;9.326;2024-02-04T00:57:28;3.30;;;2.37;;
6215;SDS011;3141;49.234;9.326;2024-02-04T00:58:10;4.40;;;2.90;;
6215;SDS011;3141;49.234;9.326;2024-02-04T00:58:53;4.37;;;2.20;;
6215;SDS011;3141;49.234;9.326;2024-02-04T00:59:35;5.23;;;3.20;;
6215;SDS011;3141;49.234;9.326;2024-02-04T01:00:17;5.47;;;2.30;;
6215;SDS011;3141;49.234;9.326;2024-02-04T01:00:59;6.73;;;2.60;;
6215;SDS011;3141;49.234;9.326;2024-02-04T01:01:42;3.37;;;2.10;;
6215;SDS011;3141;49.234;9.326;2024-02-04T01:02:25;3.93;;;2.37;;
6215;SDS011;3141;49.234;9.326;2024-02-04T01:03:07;2.27;;;1.67;;
6215;SDS011;3141;49.234;9.326;2024-02-04T01:03:49;3.33;;;2.77;;
6215;SDS011;3141;49.234;9.326;2024-02-04T01:04:31;4.37;;;2.30;;
6215;SDS011;3141;49.234;9.326;2024-02-04T01:05:14;1.90;;;1.70;;
6215;SDS011;3141;49.234;9.326;2024-02-04T01:05:56;2.90;;;2.37;;
6215;SDS011;3141;49.234;9.326;2024-02-04T01:06:39;3.00;;;2.50;;
6215;SDS011;3141;49.234;9.326;2024-02-04T01:07:21;3.60;;;2.37;;
6215;SDS011;3141;49.234;9.326;2024-02-04T01:08:04;3.97;;;2.77;;
6215;SDS011;3141;49.234;9.326;2024-02-04T01:08:46;2.70;;;2.20;;
6215;SDS011;3141;49.234;9.326;2024-02-04T01:09:28;4.57;;;2.77;;
6215;SDS011;3141;49.234;9.326;2024-02-04T01:10:11;4.80;;;1.93;;
6215;SDS011;3141;49.234;9.326;2024-02-04T01:10:53;7.07;;;2.93;;
6215;SDS011;3141;49.234;9.326;2024-02-04T01:11:35;3.97;;;2.07;;
6215;SDS011;3141;49.234;9.326;2024-02-04T01:12:18;6.53;;;3.17;;
6215;SDS011;3141;49.234;9.326;2024-02-04T01:13:00;3.83;;;3.07;;
6215;SDS011;3141;49.234;9.326;2024-02-04T01:13:42;3.77;;;2.53;;
6215;SDS011;3141;49.234;9.326;2024-02-04T01:14:25;2.63;;;2.33;;
6215;SDS011;3141;49.234;9.326;2024-02-04T01:15:07;5.03;;;3.43;;
6215;SDS011;3141;49.234;9.326;2024-02-04T01:15:50;6.20;;;2.97;;
6215;SDS011;3141;49.234;9.326;2024-02-04T01:16:32;3.03;;;2.20;;
6215;SDS011;3141;49.234;9.326;2024-02-04T01:17:14;4.40;;;2.47;;
6215;SDS011;3141;49.234;9.326;2024-02-04T01:17:56;3.23;;;2.43;;
6215;SDS011;3141;49.234;9.326;2024-02-04T01:18:39;2.57;;;1.83;;
6215;SDS011;3141;49.234;9.326;2024-02-04T01:19:21;5.63;;;2.47;;
6215;SDS011;3141;49.234;9.326;2024-02-04T01:20:03;7.10;;;2.60;;
6215;SDS011;3141;49.234;9.326;2024-02-04T01:20:47;2.95;;;2.30;;
6215;SDS011;3141;49.234;9.326;2024-02-04T01:21:29;4.27;;;2.17;;
6215;SDS011;3141;49.234;9.326;2024-02-04T01:22:12;3.10;;;2.13;;
6215;SDS011;3141;49.234;9.326;2024-02-04T01:22:54;2.53;;;2.10;;
6215;SDS011;3141;49.234;9.326;2024-02-04T01:23:36;5.50;;;2.30;;
6215;SDS011;3141;49.234;9.326;2024-02-04T01:24:19;6.83;;;3.27;;
6215;SDS011;3141;49.234;9.326;2024-02-04T01:25:01;5.27;;;2.83;;
6215;SDS011;3141;49.234;9.326;2024-02-04T01:25:43;3.43;;;2.67;;
6215;SDS011;3141;49.234;9.326;2024-02-04T01:26:26;2.20;;;1.67;;
6215;SDS011;3141;49.234;9.326;2024-02-04T01:27:08;3.37;;;1.77;;
6215;SDS011;3141;49.234;9.326;2024-02-04T01:27:50;4.50;;;2.07;;
6215;SDS011;3141;49.234;9.326;2024-02-04T01:28:33;9.67;;;3.97;;
6215;SDS011;3141;49.234;9.326;2024-02-04T01:29:15;4.63;;;2.70;;
6215;SDS011;3141;49.234;9.326;2024-02-04T01:29:57;5.10;;;2.57;;
6215;SDS011;3141;49.234;9.326;2024-02-04T01:30:40;2.17;;;1.80;;
6215;SDS011;3141;49.234;9.326;2024-02-04T01:31:22;2.53;;;1.70;;
6215;SDS011;3141;49.234;9.326;2024-02-04T01:32:04;2.57;;;1.90;;
6215;SDS011;3141;49.234;9.326;2024-02-04T01:32:47;9.30;;;3.90;;
6215;SDS011;3141;49.234;9.326;2024-02-04T01:33:29;5.43;;;2.87;;
6215;SDS011;3141;49.234;9.326;2024-02-04T01:34:12;5.50;;;2.90;;
6215;SDS011;3141;49.234;9.326;2024-02-04T01:34:54;3.00;;;2.37;;
6215;SDS011;3141;49.234;9.326;2024-02-04T01:35:36;7.57;;;3.13;;
6215;SDS011;3141;49.234;9.326;2024-02-04T01:36:19;3.77;;;2.00;;
6215;SDS011;3141;49.234;9.326;2024-02-04T01:37:01;5.93;;;2.40;;
6215;SDS011;3141;49.234;9.326;2024-02-04T01:37:43;3.03;;;2.00;;
6215;SDS011;3141;49.234;9.326;2024-02-04T01:38:26;4.13;;;1.90;;
6215;SDS011;3141;49.234;9.326;2024-02-04T01:39:08;3.53;;;2.27;;
6215;SDS011;3141;49.234;9.326;2024-02-04T01:39:52;4.20;;;2.17;;
6215;SDS011;3141;49.234;9.326;2024-02-04T01:40:34;1.93;;;1.83;;
6215;SDS011;3141;49.234;9.326;2024-02-04T01:41:17;3.47;;;1.58;;
6215;SDS011;3141;49.234;9.326;2024-02-04T01:42:00;3.87;;;2.63;;
6215;SDS011;3141;49.234;9.326;2024-02-04T01:42:43;4.33;;;2.43;;
6215;SDS011;3141;49.234;9.326;2024-02-04T01:43:25;5.60;;;2.77;;
6215;SDS011;3141;49.234;9.326;2024-02-04T01:44:08;1.97;;;1.63;;
6215;SDS011;3141;49.234;9.326;2024-02-04T01:44:50;11.10;;;5.13;;
6215;SDS011;3141;49.234;9.326;2024-02-04T01:45:33;2.83;;;1.90;;
6215;SDS011;3141;49.234;9.326;2024-02-04T01:46:15;6.33;;;3.50;;
6215;SDS011;3141;49.234;9.326;2024-02-04T01:46:57;4.47;;;2.77;;
6215;SDS011;3141;49.234;9.326;2024-02-04T01:47:40;2.10;;;1.90;;
6215;SDS011;3141;49.234;9.326;2024-02-04T01:48:22;6.60;;;3.03;;
6215;SDS011;3141;49.234;9.326;2024-02-04T01:49:04;4.53;;;2.40;;
6215;SDS011;3141;49.234;9.326;2024-02-04T01:49:47;6.30;;;2.63;;
6215;SDS011;3141;49.234;9.326;2024-02-04T01:50:29;2.13;;;1.93;;
6215;SDS011;3141;49.234;9.326;2024-02-04T01:51:13;3.37;;;1.87;;
6215;SDS011;3141;49.234;9.326;2024-02-04T01:51:56;5.43;;;2.97;;
6215;SDS011;3141;49.234;9.326;2024-02-04T01:52:39;3.17;;;2.10;;
6215;SDS011;3141;49.234;9.326;2024-02-04T01:53:24;3.67;;;2.50;;
6215;SDS011;3141;49.234;9.326;2024-02-04T01:54:08;2.17;;;1.80;;
6215;SDS011;3141;49.234;9.326;2024-02-04T01:54:50;1.87;;;1.60;;
6215;SDS011;3141;49.234;9.326;2024-02-04T01:55:34;3.88;;;2.45;;
6215;SDS011;3141;49.234;9.326;2024-02-04T01:56:17;3.90;;;2.03;;
6215;SDS011;3141;49.234;9.326;2024-02-04T01:57:01;2.45;;;1.70;;
6215;SDS011;3141;49.234;9.326;2024-02-04T01:57:44;4.00;;;2.30;;
6215;SDS011;3141;49.234;9.326;2024-02-04T01:58:26;6.20;;;3.07;;
6215;SDS011;3141;49.234;9.326;2024-02-04T01:59:09;4.43;;;2.77;;
6215;SDS011;3141;49.234;9.326;2024-02-04T01:59:52;2.70;;;1.60;;
6215;SDS011;3141;49.234;9.326;2024-02-04T02:00:36;2.75;;;2.22;;
6215;SDS011;3141;49.234;9.326;2024-02-04T02:01:19;4.63;;;2.23;;
6215;SDS011;3141;49.234;9.326;2024-02-04T02:02:02;3.72;;;1.70;;
6215;SDS011;3141;49.234;9.326;2024-02-04T02:02:45;3.60;;;2.33;;
6215;SDS011;3141;49.234;9.326;2024-02-04T02:03:28;1.70;;;1.60;;
6215;SDS011;3141;49.234;9.326;2024-02-04T02:04:13;4.95;;;2.72;;
6215;SDS011;3141;49.234;9.326;2024-02-04T02:04:56;4.57;;;2.93;;
6215;SDS011;3141;49.234;9.326;2024-02-04T02:05:39;2.83;;;1.83;;
6215;SDS011;3141;49.234;9.326;2024-02-04T02:06:22;5.55;;;2.60;;
6215;SDS011;3141;49.234;9.326;2024-02-04T02:07:05;4.28;;;2.97;;
6215;SDS011;3141;49.234;9.326;2024-02-04T02:07:49;2.50;;;1.83;;
6215;SDS011;3141;49.234;9.326;2024-02-04T02:08:33;3.13;;;1.80;;
6215;SDS011;3141;49.234;9.326;2024-02-04T02:09:16;2.72;;;1.88;;
6215;SDS011;3141;49.234;9.326;2024-02-04T02:09:58;1.30;;;1.23;;
6215;SDS011;3141;49.234;9.326;2024-02-04T02:10:41;2.57;;;1.77;;
6215;SDS011;3141;49.234;9.326;2024-02-04T02:11:41;2.30;;;1.60;;
6215;SDS011;3141;49.234;9.326;2024-02-04T02:12:30;2.83;;;1.95;;
6215;SDS011;3141;49.234;9.326;2024-02-04T02:13:22;1.70;;;1.40;;
6215;SDS011;3141;49.234;9.326;2024-02-04T02:14:12;1.75;;;1.50;;
6215;SDS011;3141;49.234;9.326;2024-02-04T02:14:58;2.33;;;1.80;;
6215;SDS011;3141;49.234;9.326;2024-02-04T02:15:46;6.43;;;2.97;;
6215;SDS011;3141;49.234;9.326;2024-02-04T02:16:33;3.50;;;2.15;;
6215;SDS011;3141;49.234;9.326;2024-02-04T02:17:16;3.00;;;2.38;;
6215;SDS011;3141;49.234;9.326;2024-02-04T02:18:11;3.35;;;1.92;;
6215;SDS011;3141;49.234;9.326;2024-02-04T02:19:57;4.00;;;2.67;;
6215;SDS011;3141;49.234;9.326;2024-02-04T02:20:55;4.78;;;1.80;;
6215;SDS011;3141;49.234;9.326;2024-02-04T02:21:50;3.78;;;2.30;;
6215;SDS011;3141;49.234;9.326;2024-02-04T02:22:39;3.50;;;2.25;;
6215;SDS011;3141;49.234;9.326;2024-02-04T02:23:31;1.60;;;1.40;;
6215;SDS011;3141;49.234;9.326;2024-02-04T02:25:05;3.13;;;2.03;;
6215;SDS011;3141;49.234;9.326;2024-02-04T02:25:49;3.65;;;2.15;;
6215;SDS011;3141;49.234;9.326;2024-02-04T02:26:33;2.20;;;1.80;;
6215;SDS011;3141;49.234;9.326;2024-02-04T02:27:20;2.42;;;1.60;;
6215;SDS011;3141;49.234;9.326;2024-02-04T02:28:02;1.50;;;1.40;;
6215;SDS011;3141;49.234;9.326;2024-02-04T02:28:44;1.20;;;1.13;;
6215;SDS011;3141;49.234;9.326;2024-02-04T02:29:27;1.47;;;1.40;;
6215;SDS011;3141;49.234;9.326;2024-02-04T02:30:09;1.83;;;1.60;;
6215;SDS011;3141;49.234;9.326;2024-02-04T02:30:52;4.10;;;1.73;;
6215;SDS011;3141;49.234;9.326;2024-02-04T02:31:38;2.23;;;1.53;;
6215;SDS011;3141;49.234;9.326;2024-02-04T02:32:22;2.35;;;1.80;;
6215;SDS011;3141;49.234;9.326;2024-02-04T02:33:05;2.50;;;1.77;;
6215;SDS011;3141;49.234;9.326;2024-02-04T02:33:49;3.33;;;1.70;;
6215;SDS011;3141;49.234;9.326;2024-02-04T02:34:32;2.10;;;1.47;;
6215;SDS011;3141;49.234;9.326;2024-02-04T02:35:17;2.80;;;1.97;;
6215;SDS011;3141;49.234;9.326;2024-02-04T02:36:00;2.40;;;1.58;;
6215;SDS011;3141;49.234;9.326;2024-02-04T02:36:56;1.52;;;1.35;;
6215;SDS011;3141;49.234;9.326;2024-02-04T02:39:03;3.58;;;1.20;;
6215;SDS011;3141;49.234;9.326;2024-02-04T02:39:56;1.98;;;1.30;;
6215;SDS011;3141;49.234;9.326;2024-02-04T02:40:54;1.48;;;1.40;;
6215;SDS011;3141;49.234;9.326;2024-02-04T02:41:40;2.50;;;1.73;;
6215;SDS011;3141;49.234;9.326;2024-02-04T02:42:25;1.55;;;1.33;;
6215;SDS011;3141;49.234;9.326;2024-02-04T02:43:08;1.40;;;1.20;;
6215;SDS011;3141;49.234;9.326;2024-02-04T02:43:53;1.15;;;1.15;;
6215;SDS011;3141;49.234;9.326;2024-02-04T02:44:37;1.63;;;1.38;;
6215;SDS011;3141;49.234;9.326;2024-02-04T02:45:21;3.30;;;1.17;;
6215;SDS011;3141;49.234;9.326;2024-02-04T02:46:05;2.22;;;1.25;;
6215;SDS011;3141;49.234;9.326;2024-02-04T02:46:48;2.75;;;1.17;;
6215;SDS011;3141;49.234;9.326;2024-02-04T02:47:31;1.50;;;1.10;;
6215;SDS011;3141;49.234;9.326;2024-02-04T02:48:14;1.33;;;1.23;;
6215;SDS011;3141;49.234;9.326;2024-02-04T02:48:57;1.83;;;1.30;;
6215;SDS011;3141;49.234;9.326;2024-02-04T02:49:40;1.60;;;1.38;;
6215;SDS011;3141;49.234;9.326;2024-02-04T02:50:22;1.20;;;1.20;;
6215;SDS011;3141;49.234;9.326;2024-02-04T02:51:05;2.23;;;0.97;;
6215;SDS011;3141;49.234;9.326;2024-02-04T02:51:48;2.23;;;1.57;;
6215;SDS011;3141;49.234;9.326;2024-02-04T02:52:30;1.73;;;1.20;;
6215;SDS011;3141;49.234;9.326;2024-02-04T02:53:12;2.90;;;1.10;;
6215;SDS011;3141;49.234;9.326;2024-02-04T02:53:55;1.77;;;0.93;;
6215;SDS011;3141;49.234;9.326;2024-02-04T02:54:37;1.63;;;1.13;;
6215;SDS011;3141;49.234;9.326;2024-02-04T02:55:19;4.33;;;1.20;;
6215;SDS011;3141;49.234;9.326;2024-02-04T02:56:02;1.33;;;1.23;;
6215;SDS011;3141;49.234;9.326;2024-02-04T02:56:44;2.17;;;1.33;;
6215;SDS011;3141;49.234;9.326;2024-02-04T02:57:26;1.37;;;1.27;;
6215;SDS011;3141;49.234;9.326;2024-02-04T02:58:09;1.37;;;1.27;;
6215;SDS011;3141;49.234;9.326;2024-02-04T02:58:51;1.30;;;1.20;;
6215;SDS011;3141;49.234;9.326;2024-02-04T02:59:33;2.67;;;1.07;;
6215;SDS011;3141;49.234;9.326;2024-02-04T03:00:16;1.10;;;1.10;;
6215;SDS011;3141;49.234;9.326;2024-02-04T03:00:58;1.93;;;1.30;;
6215;SDS011;3141;49.234;9.326;2024-02-04T03:01:41;1.27;;;1.20;;
6215;SDS011;3141;49.234;9.326;2024-02-04T03:02:23;1.30;;;1.20;;
6215;SDS011;3141;49.234;9.326;2024-02-04T03:03:05;1.37;;;1.10;;
6215;SDS011;3141;49.234;9.326;2024-02-04T03:03:48;0.90;;;0.90;;
6215;SDS011;3141;49.234;9.326;2024-02-04T03:04:30;1.87;;;1.30;;
6215;SDS011;3141;49.234;9.326;2024-02-04T03:05:12;1.27;;;1.17;;
6215;SDS011;3141;49.234;9.326;2024-02-04T03:05:57;1.60;;;1.10;;
6215;SDS011;3141;49.234;9.326;2024-02-04T03:06:39;1.20;;;1.10;;
6215;SDS011;3141;49.234;9.326;2024-02-04T03:07:21;1.80;;;1.20;;
6215;SDS011;3141;49.234;9.326;2024-02-04T03:08:04;2.47;;;1.30;;
6215;SDS011;3141;49.234;9.326;2024-02-04T03:08:46;1.10;;;1.10;;
6215;SDS011;3141;49.234;9.326;2024-02-04T03:09:29;1.50;;;1.40;;
6215;SDS011;3141;49.234;9.326;2024-02-04T03:10:11;1.67;;;1.50;;
6215;SDS011;3141;49.234;9.326;2024-02-04T03:10:53;3.93;;;1.43;;
6215;SDS011;3141;49.234;9.326;2024-02-04T03:11:36;2.23;;;1.20;;
6215;SDS011;3141;49.234;9.326;2024-02-04T03:12:19;1.25;;;1.15;;
6215;SDS011;3141;49.234;9.326;2024-02-04T03:13:02;1.47;;;1.37;;
6215;SDS011;3141;49.234;9.326;2024-02-04T03:13:44;1.30;;;1.00;;
6215;SDS011;3141;49.234;9.326;2024-02-04T03:14:26;1.73;;;1.20;;
6215;SDS011;3141;49.234;9.326;2024-02-04T03:15:09;2.83;;;1.20;;
6215;SDS011;3141;49.234;9.326;2024-02-04T03:15:51;1.20;;;1.10;;
6215;SDS011;3141;49.234;9.326;2024-02-04T03:16:33;1.90;;;1.37;;
6215;SDS011;3141;49.234;9.326;2024-02-04T03:17:16;1.07;;;1.00;;
6215;SDS011;3141;49.234;9.326;2024-02-04T03:18:02;1.40;;;1.30;;
6215;SDS011;3141;49.234;9.326;2024-02-04T03:18:45;1.10;;;1.10;;
6215;SDS011;3141;49.234;9.326;2024-02-04T03:19:28;1.13;;;1.13;;
6215;SDS011;3141;49.234;9.326;2024-02-04T03:20:10;1.30;;;1.20;;
6215;SDS011;3141;49.234;9.326;2024-02-04T03:20:53;0.90;;;0.90;;
6215;SDS011;3141;49.234;9.326;2024-02-04T03:21:35;2.43;;;1.13;;
6215;SDS011;3141;49.234;9.326;2024-02-04T03:22:17;1.13;;;1.03;;
6215;SDS011;3141;49.234;9.326;2024-02-04T03:23:00;1.40;;;1.30;;
6215;SDS011;3141;49.234;9.326;2024-02-04T03:23:42;1.10;;;1.10;;
6215;SDS011;3141;49.234;9.326;2024-02-04T03:24:25;1.30;;;1.20;;
6215;SDS011;3141;49.234;9.326;2024-02-04T03:25:07;1.40;;;1.27;;
6215;SDS011;3141;49.234;9.326;2024-02-04T03:25:49;1.20;;;1.10;;
6215;SDS011;3141;49.234;9.326;2024-02-04T03:26:32;2.73;;;1.60;;
6215;SDS011;3141;49.234;9.326;2024-02-04T03:27:16;1.33;;;1.23;;
6215;SDS011;3141;49.234;9.326;2024-02-04T03:27:59;1.75;;;1.65;;
6215;SDS011;3141;49.234;9.326;2024-02-04T03:28:41;1.43;;;1.33;;
6215;SDS011;3141;49.234;9.326;2024-02-04T03:29:24;0.90;;;0.90;;
6215;SDS011;3141;49.234;9.326;2024-02-04T03:30:06;0.90;;;0.90;;
6215;SDS011;3141;49.234;9.326;2024-02-04T03:30:49;1.33;;;1.20;;
6215;SDS011;3141;49.234;9.326;2024-02-04T03:31:31;1.57;;;1.33;;
6215;SDS011;3141;49.234;9.326;2024-02-04T03:32:13;1.70;;;1.03;;
6215;SDS011;3141;49.234;9.326;2024-02-04T03:32:56;2.20;;;1.20;;
6215;SDS011;3141;49.234;9.326;2024-02-04T03:33:38;1.20;;;1.00;;
6215;SDS011;3141;49.234;9.326;2024-02-04T03:34:20;1.10;;;1.10;;
6215;SDS011;3141;49.234;9.326;2024-02-04T03:35:03;1.03;;;1.03;;
6215;SDS011;3141;49.234;9.326;2024-02-04T03:35:45;0.80;;;0.80;;
6215;SDS011;3141;49.234;9.326;2024-02-04T03:36:28;1.20;;;1.10;;
6215;SDS011;3141;49.234;9.326;2024-02-04T03:37:10;1.23;;;1.20;;
6215;SDS011;3141;49.234;9.326;2024-02-04T03:37:52;1.00;;;1.00;;
6215;SDS011;3141;49.234;9.326;2024-02-04T03:38:35;1.03;;;1.00;;
6215;SDS011;3141;49.234;9.326;2024-02-04T03:39:17;1.00;;;1.00;;
6215;SDS011;3141;49.234;9.326;2024-02-04T03:39:59;1.03;;;0.97;;
6215;SDS011;3141;49.234;9.326;2024-02-04T03:40:42;0.93;;;0.93;;
6215;SDS011;3141;49.234;9.326;2024-02-04T03:41:24;0.97;;;0.97;;
6215;SDS011;3141;49.234;9.326;2024-02-04T03:42:07;3.27;;;1.20;;
6215;SDS011;3141;49.234;9.326;2024-02-04T03:42:49;0.97;;;0.97;;
6215;SDS011;3141;49.234;9.326;2024-02-04T03:43:31;0.90;;;0.90;;
6215;SDS011;3141;49.234;9.326;2024-02-04T03:44:14;1.07;;;1.00;;
6215;SDS011;3141;49.234;9.326;2024-02-04T03:44:56;1.33;;;1.17;;
6215;SDS011;3141;49.234;9.326;2024-02-04T03:45:38;1.03;;;1.03;;
6215;SDS011;3141;49.234;9.326;2024-02-04T03:46:21;1.00;;;1.00;;
6215;SDS011;3141;49.234;9.326;2024-02-04T03:47:03;0.90;;;0.90;;
6215;SDS011;3141;49.234;9.326;2024-02-04T03:47:45;1.00;;;1.00;;
6215;SDS011;3141;49.234;9.326;2024-02-04T03:48:28;1.33;;;1.10;;
6215;SDS011;3141;49.234;9.326;2024-02-04T03:49:10;0.90;;;0.90;;
6215;SDS011;3141;49.234;9.326;2024-02-04T03:49:52;0.97;;;0.97;;
6215;SDS011;3141;49.234;9.326;2024-02-04T03:50:35;1.10;;;1.00;;
6215;SDS011;3141;49.234;9.326;2024-02-04T03:51:18;1.30;;;0.95;;
6215;SDS011;3141;49.234;9.326;2024-02-04T03:52:00;1.13;;;1.13;;
6215;SDS011;3141;49.234;9.326;2024-02-04T03:52:43;0.90;;;0.90;;
6215;SDS011;3141;49.234;9.326;2024-02-04T03:53:25;1.00;;;1.00;;
6215;SDS011;3141;49.234;9.326;2024-02-04T03:54:08;1.67;;;1.00;;
6215;SDS011;3141;49.234;9.326;2024-02-04T03:54:50;1.00;;;1.00;;
6215;SDS011;3141;49.234;9.326;2024-02-04T03:55:32;1.33;;;1.10;;
6215;SDS011;3141;49.234;9.326;2024-02-04T03:56:15;1.00;;;1.00;;
6215;SDS011;3141;49.234;9.326;2024-02-04T03:56:57;1.20;;;1.10;;
6215;SDS011;3141;49.234;9.326;2024-02-04T03:57:39;1.40;;;1.30;;
6215;SDS011;3141;49.234;9.326;2024-02-04T03:58:22;0.73;;;0.73;;
6215;SDS011;3141;49.234;9.326;2024-02-04T03:59:11;1.55;;;1.20;;
6215;SDS011;3141;49.234;9.326;2024-02-04T03:59:53;0.80;;;0.80;;
6215;SDS011;3141;49.234;9.326;2024-02-04T04:00:35;1.53;;;0.90;;
6215;SDS011;3141;49.234;9.326;2024-02-04T04:01:18;0.90;;;0.90;;
6215;SDS011;3141;49.234;9.326;2024-02-04T04:02:00;1.50;;;1.10;;
6215;SDS011;3141;49.234;9.326;2024-02-04T04:02:42;1.10;;;1.00;;
6215;SDS011;3141;49.234;9.326;2024-02-04T04:03:25;1.27;;;1.23;;
6215;SDS011;3141;49.234;9.326;2024-02-04T04:04:08;0.97;;;0.97;;
6215;SDS011;3141;49.234;9.326;2024-02-04T04:04:50;1.03;;;1.03;;
6215;SDS011;3141;49.234;9.326;2024-02-04T04:05:32;0.93;;;0.93;;
6215;SDS011;3141;49.234;9.326;2024-02-04T04:06:15;1.47;;;1.10;;
6215;SDS011;3141;49.234;9.326;2024-02-04T04:06:57;1.63;;;1.10;;
6215;SDS011;3141;49.234;9.326;2024-02-04T04:07:40;1.20;;;1.20;;
6215;SDS011;3141;49.234;9.326;2024-02-04T04:08:22;2.90;;;1.30;;
6215;SDS011;3141;49.234;9.326;2024-02-04T04:09:04;1.10;;;1.10;;
6215;SDS011;3141;49.234;9.326;2024-02-04T04:09:47;1.10;;;1.10;;
6215;SDS011;3141;49.234;9.326;2024-02-04T04:10:29;0.90;;;0.90;;
6215;SDS011;3141;49.234;9.326;2024-02-04T04:11:12;1.10;;;1.00;;
6215;SDS011;3141;49.234;9.326;2024-02-04T04:11:54;0.80;;;0.80;;
6215;SDS011;3141;49.234;9.326;2024-02-04T04:12:36;1.10;;;1.10;;
6215;SDS011;3141;49.234;9.326;2024-02-04T04:13:19;0.97;;;0.97;;
6215;SDS011;3141;49.234;9.326;2024-02-04T04:14:01;1.00;;;1.00;;
6215;SDS011;3141;49.234;9.326;2024-02-04T04:14:43;1.00;;;1.00;;
6215;SDS011;3141;49.234;9.326;2024-02-04T04:15:26;1.00;;;1.00;;
6215;SDS011;3141;49.234;9.326;2024-02-04T04:16:08;1.07;;;1.07;;
6215;SDS011;3141;49.234;9.326;2024-02-04T04:16:50;1.50;;;1.30;;
6215;SDS011;3141;49.234;9.326;2024-02-04T04:17:32;1.07;;;0.93;;
6215;SDS011;3141;49.234;9.326;2024-02-04T04:18:15;1.00;;;0.90;;
6215;SDS011;3141;49.234;9.326;2024-02-04T04:18:57;1.03;;;0.93;;
6215;SDS011;3141;49.234;9.326;2024-02-04T04:19:42;1.15;;;1.05;;
6215;SDS011;3141;49.234;9.326;2024-02-04T04:20:24;1.10;;;1.00;;
6215;SDS011;3141;49.234;9.326;2024-02-04T04:21:07;4.10;;;2.00;;
6215;SDS011;3141;49.234;9.326;2024-02-04T04:21:49;1.00;;;1.00;;
6215;SDS011;3141;49.234;9.326;2024-02-04T04:22:31;0.90;;;0.90;;
6215;SDS011;3141;49.234;9.326;2024-02-04T04:23:13;1.30;;;0.97;;
6215;SDS011;3141;49.234;9.326;2024-02-04T04:23:56;0.90;;;0.90;;
6215;SDS011;3141;49.234;9.326;2024-02-04T04:24:38;1.00;;;1.00;;
6215;SDS011;3141;49.234;9.326;2024-02-04T04:25:20;0.90;;;0.90;;
6215;SDS011;3141;49.234;9.326;2024-02-04T04:26:03;1.03;;;1.00;;
6215;SDS011;3141;49.234;9.326;2024-02-04T04:26:45;0.90;;;0.87;;
6215;SDS011;3141;49.234;9.326;2024-02-04T04:27:27;1.10;;;1.00;;
6215;SDS011;3141;49.234;9.326;2024-02-04T04:28:10;1.00;;;1.00;;
6215;SDS011;3141;49.234;9.326;2024-02-04T04:28:53;1.10;;;1.00;;
6215;SDS011;3141;49.234;9.326;2024-02-04T04:29:36;0.75;;;0.75;;
6215;SDS011;3141;49.234;9.326;2024-02-04T04:30:18;1.20;;;1.10;;